Time;durP1;ratioP1;P1;durP2;ratioP2;P2;SDS_P1;SDS_P2;PMS_P1;PMS_P2;Temp;Humidity;BMP_temperature;BMP_pressure;BME280_temperature;BME280_humidity;BME280_pressure;Samples;Min_cycle;Max_cycle;Signal;HPM_P1;HPM_P2
2021/12/04 00:01:09;;;;;;;;;6.00;3.00;;;;;9.89;87.76;99543.53;5078074;28;45394;-53
2021/12/04 00:03:34;;;;;;;;;2.00;1.00;;;;;9.95;87.35;99532.25;5078369;28;45408;-52
2021/12/04 00:06:06;;;;;;;;;2.00;2.00;;;;;10.00;88.31;99527.22;5077723;28;46234;-55
2021/12/04 00:08:34;;;;;;;;;2.00;1.00;;;;;10.03;87.95;99518.94;5077827;28;45501;-53
2021/12/04 00:11:00;;;;;;;;;0.67;0.67;;;;;10.09;88.33;99528.84;5077865;28;45321;-55
2021/12/04 00:13:25;;;;;;;;;1.00;1.00;;;;;10.13;87.97;99519.53;5078107;28;45337;-54
2021/12/04 00:15:51;;;;;;;;;2.33;2.00;;;;;10.17;87.71;99510.22;5077266;28;45302;-54
2021/12/04 00:18:16;;;;;;;;;2.00;0.00;;;;;10.22;88.28;99499.06;5077636;28;45254;-54
2021/12/04 00:20:41;;;;;;;;;1.00;1.00;;;;;10.24;88.56;99494.41;5077993;28;45356;-55
2021/12/04 00:23:07;;;;;;;;;5.00;1.00;;;;;10.25;87.52;99493.44;5077979;28;45207;-55
2021/12/04 00:25:33;;;;;;;;;0.33;0.00;;;;;10.29;88.54;99499.22;5077606;28;46345;-58
2021/12/04 00:27:59;;;;;;;;;1.67;0.00;;;;;10.32;88.49;99488.22;5077499;28;45452;-52
2021/12/04 00:30:26;;;;;;;;;0.67;0.00;;;;;10.34;88.36;99495.03;5077524;28;45321;-54
2021/12/04 00:33:01;;;;;;;;;0.00;0.00;;;;;10.19;87.58;99448.91;5077911;28;45384;-60
2021/12/04 00:49:04;;;;;;;;;0.00;0.00;;;;;10.46;88.21;99476.84;5077921;28;45396;-54
2021/12/04 00:51:33;;;;;;;;;0.00;0.00;;;;;10.58;87.83;99466.63;5077767;28;45264;-60
2021/12/04 00:53:58;;;;;;;;;0.00;0.00;;;;;10.61;87.36;99469.72;5077960;28;45333;-54
2021/12/04 00:56:24;;;;;;;;;0.00;0.00;;;;;10.63;87.50;99466.91;5077392;28;47253;-56
2021/12/04 00:58:49;;;;;;;;;0.00;0.00;;;;;10.65;87.87;99460.41;5077591;28;45337;-54
2021/12/04 01:01:16;;;;;;;;;0.00;0.00;;;;;10.67;87.87;99462.91;5077253;28;45462;-57
2021/12/04 01:03:42;;;;;;;;;0.00;0.00;;;;;10.71;87.26;99459.69;5077719;28;45424;-57
2021/12/04 01:06:07;;;;;;;;;0.00;0.00;;;;;10.75;87.32;99457.50;5077089;28;45354;-56
2021/12/04 01:08:33;;;;;;;;;0.00;0.00;;;;;10.81;88.00;99461.28;5077392;28;45353;-53
2021/12/04 01:10:58;;;;;;;;;1.67;0.00;;;;;10.82;87.21;99455.75;5077556;28;45370;-56
2021/12/04 01:13:24;;;;;;;;;0.00;0.00;;;;;10.86;86.98;99462.38;5077376;28;45539;-55
2021/12/04 01:15:49;;;;;;;;;0.00;0.00;;;;;10.90;87.15;99454.88;5077111;28;46847;-58
2021/12/04 01:18:15;;;;;;;;;0.00;0.00;;;;;10.89;86.84;99456.72;5077243;28;45179;-55
2021/12/04 01:20:40;;;;;;;;;0.00;0.00;;;;;10.94;87.15;99464.16;5077426;28;45273;-56
2021/12/04 01:23:06;;;;;;;;;0.00;0.00;;;;;10.98;87.01;99454.81;5077391;28;45233;-56
2021/12/04 01:25:32;;;;;;;;;0.00;0.00;;;;;10.97;86.87;99463.78;5076751;28;45379;-55
2021/12/04 01:27:57;;;;;;;;;0.67;0.00;;;;;11.01;87.44;99462.44;5077194;28;45354;-56
2021/12/04 01:30:22;;;;;;;;;0.00;0.00;;;;;11.01;87.22;99458.94;5077117;28;45656;-55
2021/12/04 01:32:48;;;;;;;;;0.00;0.00;;;;;11.03;87.07;99467.56;5077269;28;45301;-56
2021/12/04 01:35:14;;;;;;;;;0.00;0.00;;;;;11.03;87.28;99457.75;5076811;28;46474;-53
2021/12/04 01:37:39;;;;;;;;;1.00;0.00;;;;;11.05;87.43;99460.25;5076902;28;45340;-56
2021/12/04 01:40:06;;;;;;;;;0.00;0.00;;;;;11.05;87.45;99474.38;5077245;28;45408;-59
2021/12/04 01:42:35;;;;;;;;;0.00;0.00;;;;;11.07;87.51;99461.69;5077246;28;45332;-54
2021/12/04 01:45:01;;;;;;;;;0.00;0.00;;;;;11.09;87.61;99475.66;5058346;28;47313;-56
2021/12/04 01:47:27;;;;;;;;;0.00;0.00;;;;;11.10;87.65;99464.00;5077361;28;45241;-56
2021/12/04 01:49:54;;;;;;;;;0.00;0.00;;;;;11.11;87.37;99460.31;5080448;28;45204;-54
2021/12/04 01:52:20;;;;;;;;;0.00;0.00;;;;;11.15;87.67;99471.44;5080448;28;45491;-55
2021/12/04 01:54:47;;;;;;;;;0.00;0.00;;;;;11.17;87.55;99467.59;5079382;28;46497;-56
2021/12/04 01:57:15;;;;;;;;;0.67;0.00;;;;;11.17;87.63;99467.59;5079931;28;45256;-55
2021/12/04 01:59:41;;;;;;;;;0.00;0.00;;;;;11.20;86.96;99474.38;5080283;28;45493;-59
2021/12/04 02:02:06;;;;;;;;;0.00;0.00;;;;;11.22;87.04;99478.53;5080220;28;45429;-55
2021/12/04 02:04:32;;;;;;;;;0.00;0.00;;;;;11.23;87.14;99469.53;5080001;28;45344;-52
2021/12/04 02:06:59;;;;;;;;;0.00;0.00;;;;;11.26;87.09;99473.66;5062000;28;45395;-53
2021/12/04 02:09:25;;;;;;;;;0.00;0.00;;;;;11.26;87.35;99462.19;5080041;28;45314;-58
2021/12/04 02:11:51;;;;;;;;;0.00;0.00;;;;;11.26;87.52;99465.69;5080370;28;45373;-59
2021/12/04 02:14:16;;;;;;;;;1.00;0.00;;;;;11.28;87.23;99476.13;5079862;28;47267;-53
2021/12/04 02:16:41;;;;;;;;;0.00;0.00;;;;;11.31;86.87;99473.13;5079667;28;45380;-54
2021/12/04 02:19:07;;;;;;;;;0.00;0.00;;;;;11.32;87.18;99467.59;5080222;28;45415;-54
2021/12/04 02:21:32;;;;;;;;;0.00;0.00;;;;;11.33;86.63;99463.91;5080275;28;45880;-57
2021/12/04 02:23:58;;;;;;;;;0.00;0.00;;;;;11.37;86.79;99475.84;5079836;28;45348;-57
2021/12/04 02:26:23;;;;;;;;;0.00;0.00;;;;;11.38;86.21;99472.22;5079644;28;45350;-55
2021/12/04 02:28:49;;;;;;;;;0.00;0.00;;;;;11.40;86.29;99464.84;5079916;28;45351;-56
2021/12/04 02:31:14;;;;;;;;;0.00;0.00;;;;;11.40;86.36;99464.84;5079834;28;45528;-57
2021/12/04 02:33:40;;;;;;;;;0.00;0.00;;;;;11.43;86.16;99472.47;5079521;28;45440;-57
2021/12/04 02:36:07;;;;;;;;;0.00;0.00;;;;;11.48;85.57;99469.25;5079196;28;45299;-54
2021/12/04 02:38:33;;;;;;;;;0.00;0.00;;;;;11.49;85.95;99476.22;5061854;28;45354;-55
2021/12/04 02:41:00;;;;;;;;;0.00;0.00;;;;;11.52;85.60;99467.88;5079904;28;45500;-53
2021/12/04 02:43:26;;;;;;;;;0.00;0.00;;;;;11.54;85.56;99468.50;5079060;28;45562;-56
2021/12/04 02:45:52;;;;;;;;;0.00;0.00;;;;;11.56;85.46;99474.50;5079151;28;45465;-55
2021/12/04 02:48:18;;;;;;;;;0.00;0.00;;;;;11.52;85.81;99456.41;5079758;28;45266;-51
2021/12/04 02:50:44;;;;;;;;;0.00;0.00;;;;;11.58;85.42;99469.81;5079822;28;45466;-55
2021/12/04 02:53:09;;;;;;;;;0.00;0.00;;;;;11.59;85.14;99484.78;5077769;28;46107;-59
2021/12/04 02:55:35;;;;;;;;;0.00;0.00;;;;;11.61;85.34;99471.28;5079401;28;45343;-53
2021/12/04 02:58:01;;;;;;;;;0.00;0.00;;;;;11.64;85.31;99481.56;5079357;28;45421;-52
2021/12/04 03:00:27;;;;;;;;;0.00;0.00;;;;;11.63;85.17;99474.56;5078507;28;45164;-55
2021/12/04 03:02:55;;;;;;;;;0.00;0.00;;;;;11.62;84.84;99471.09;5078941;28;46082;-52
2021/12/04 03:05:24;;;;;;;;;0.00;0.00;;;;;11.65;84.98;99476.06;5078739;28;45287;-53
2021/12/04 03:07:55;;;;;;;;;0.00;0.00;;;;;11.66;84.80;99480.38;5079307;28;45226;-54
2021/12/04 03:10:21;;;;;;;;;0.00;0.00;;;;;11.68;84.81;99481.03;5079357;28;45601;-55
2021/12/04 03:12:47;;;;;;;;;0.00;0.00;;;;;11.70;84.93;99481.66;5079069;28;45523;-54
2021/12/04 03:15:13;;;;;;;;;0.00;0.00;;;;;11.70;84.92;99473.66;5079090;28;45499;-54
2021/12/04 03:17:39;;;;;;;;;0.00;0.00;;;;;11.74;85.20;99480.25;5078942;28;45459;-51
2021/12/04 03:20:05;;;;;;;;;0.00;0.00;;;;;11.72;84.95;99476.16;5079221;28;45426;-57
2021/12/04 03:22:31;;;;;;;;;0.00;0.00;;;;;11.74;84.48;99466.94;5078750;28;45624;-54
2021/12/04 03:24:57;;;;;;;;;0.67;0.00;;;;;11.73;85.40;99472.47;5078712;28;45304;-55
2021/12/04 03:27:24;;;;;;;;;0.00;0.00;;;;;11.69;84.99;99477.34;5079034;28;45408;-57
2021/12/04 03:29:56;;;;;;;;;0.00;0.00;;;;;11.73;85.02;99488.44;5078954;28;45395;-54
2021/12/04 03:43:03;;;;;;;;;0.00;0.00;;;;;11.68;85.53;99462.38;5078446;28;45336;-53
2021/12/04 03:45:29;;;;;;;;;0.00;0.00;;;;;11.68;85.08;99473.03;5078323;28;45415;-54
2021/12/04 03:48:04;;;;;;;;;0.00;0.00;;;;;11.68;85.06;99467.69;5078401;28;45430;-55
2021/12/04 03:50:29;;;;;;;;;0.00;0.00;;;;;11.69;84.75;99465.84;5078633;28;45473;-58
2021/12/04 03:52:54;;;;;;;;;0.00;0.00;;;;;11.71;84.45;99467.34;5078227;28;45840;-54
2021/12/04 03:55:20;;;;;;;;;0.00;0.00;;;;;11.73;84.49;99462.63;5078473;28;45371;-57
2021/12/04 03:57:45;;;;;;;;;1.00;0.00;;;;;11.73;84.35;99470.63;5078560;28;45404;-52
2021/12/04 04:00:15;;;;;;;;;0.00;0.00;;;;;11.76;84.20;99474.78;5078737;28;45693;-53
2021/12/04 04:02:41;;;;;;;;;0.00;0.00;;;;;11.78;83.84;99471.91;5078165;28;45349;-54
2021/12/04 04:05:07;;;;;;;;;0.00;0.00;;;;;11.80;83.86;99470.72;5078209;28;45630;-53
2021/12/04 04:07:32;;;;;;;;;0.00;0.00;;;;;11.81;83.76;99476.88;5078421;28;45269;-53
2021/12/04 04:09:58;;;;;;;;;1.00;0.00;;;;;11.80;83.78;99476.06;5077815;28;45430;-53
2021/12/04 04:12:23;;;;;;;;;0.00;0.00;;;;;11.79;83.78;99468.22;5059947;28;45525;-53
2021/12/04 04:14:49;;;;;;;;;0.00;0.00;;;;;11.81;83.56;99461.72;5078095;28;45396;-52
2021/12/04 04:17:14;;;;;;;;;0.00;0.00;;;;;11.81;83.72;99472.38;5078041;28;45491;-53
2021/12/04 04:19:40;;;;;;;;;0.00;0.00;;;;;11.79;83.67;99471.72;5078541;28;45332;-54
2021/12/04 04:22:06;;;;;;;;;0.33;0.00;;;;;11.81;83.51;99477.69;5077895;28;45335;-52
2021/12/04 04:24:32;;;;;;;;;0.00;0.00;;;;;11.82;84.08;99473.19;5077896;28;45493;-53
2021/12/04 04:26:58;;;;;;;;;0.00;0.00;;;;;11.83;83.64;99474.88;5077566;28;45384;-53
2021/12/04 04:29:25;;;;;;;;;0.00;0.00;;;;;11.82;83.00;99473.19;5078183;28;45459;-55
2021/12/04 04:31:53;;;;;;;;;0.00;0.00;;;;;11.83;84.33;99474.88;5077884;28;47229;-56
2021/12/04 04:34:24;;;;;;;;;0.67;0.67;;;;;11.81;83.91;99471.56;5077526;28;45310;-54
2021/12/04 05:12:11;;;;;;;;;0.00;0.00;;;;;11.50;83.86;99443.25;4975660;28;45492;-52
2021/12/04 05:14:40;;;;;;;;;0.00;0.00;;;;;11.49;84.03;99441.63;4975067;28;47083;-53
2021/12/04 05:17:26;;;;;;;;;1.00;0.00;;;;;11.45;84.09;99449.16;4975100;28;45430;-52
2021/12/04 05:19:55;;;;;;;;;0.00;0.00;;;;;11.40;83.91;99440.06;4975149;28;45444;-52
2021/12/04 05:22:22;;;;;;;;;0.00;0.00;;;;;11.41;84.33;99449.69;4976183;28;45455;-59
2021/12/04 05:24:47;;;;;;;;;0.00;0.00;;;;;11.40;83.99;99443.53;4978744;28;46498;-55
2021/12/04 05:27:14;;;;;;;;;3.00;0.00;;;;;11.37;84.07;99443.91;4978665;28;45348;-55
2021/12/04 05:29:41;;;;;;;;;0.00;0.00;;;;;11.38;83.95;99437.59;4978858;28;45462;-52
2021/12/04 05:32:08;;;;;;;;;0.00;0.00;;;;;11.38;83.97;99440.25;4978755;28;45459;-53
2021/12/04 05:34:34;;;;;;;;;0.00;0.00;;;;;11.39;83.99;99443.75;4986586;28;46310;-51
2021/12/04 05:37:00;;;;;;;;;0.00;0.00;;;;;11.41;83.95;99439.03;5080592;28;45432;-52
2021/12/04 05:39:26;;;;;;;;;0.00;0.00;;;;;11.43;83.75;99440.53;5081050;28;45349;-54
2021/12/04 05:41:52;;;;;;;;;0.00;0.00;;;;;11.46;83.61;99436.66;5081280;28;45312;-54
2021/12/04 05:44:21;;;;;;;;;0.00;0.00;;;;;11.48;83.59;99429.31;5080310;28;46118;-54
2021/12/04 05:46:54;;;;;;;;;0.00;0.00;;;;;11.39;83.51;99415.28;5080152;28;45399;-54
2021/12/04 05:56:51;;;;;;;;;1.00;0.00;;;;;11.54;83.83;99449.06;5080341;28;45368;-54
2021/12/04 05:59:16;;;;;;;;;0.00;0.00;;;;;11.54;83.65;99457.03;5080517;28;45375;-58
2021/12/04 06:01:42;;;;;;;;;0.00;0.00;;;;;11.48;83.50;99445.28;5080707;28;45419;-53
2021/12/04 06:04:07;;;;;;;;;0.00;0.00;;;;;11.51;83.47;99446.78;5080044;28;45475;-51
2021/12/04 06:06:33;;;;;;;;;1.00;0.00;;;;;11.52;83.27;99448.41;5080115;28;45463;-62
2021/12/04 06:08:58;;;;;;;;;0.00;0.00;;;;;11.50;83.81;99443.25;5080045;28;45425;-60
2021/12/04 06:11:24;;;;;;;;;0.00;0.00;;;;;11.47;83.47;99444.47;5080638;28;45277;-60
2021/12/04 06:13:49;;;;;;;;;0.00;0.00;;;;;11.47;83.68;99448.97;5080304;28;45872;-61
2021/12/04 06:16:15;;;;;;;;;0.67;0.00;;;;;11.47;83.70;99443.66;5080082;28;45205;-63
2021/12/04 06:18:45;;;;;;;;;0.00;0.00;;;;;11.47;83.81;99444.47;5080037;28;45469;-61
2021/12/04 06:23:55;;;;;;;;;0.00;0.00;;;;;11.39;83.49;99423.25;5079800;28;45659;-62
2021/12/04 06:26:20;;;;;;;;;0.00;0.00;;;;;11.48;83.36;99435.47;5079786;28;45235;-63
2021/12/04 06:28:45;;;;;;;;;0.00;0.00;;;;;11.47;83.74;99433.00;5079928;28;45887;-62
2021/12/04 06:31:11;;;;;;;;;0.00;0.00;;;;;11.46;83.49;99426.84;5080242;28;45377;-62
2021/12/04 06:33:38;;;;;;;;;1.00;0.00;;;;;11.45;83.54;99419.84;5079130;28;46901;-62
2021/12/04 06:36:05;;;;;;;;;0.00;0.00;;;;;11.46;83.41;99415.34;5079673;28;45402;-60
2021/12/04 06:38:31;;;;;;;;;0.00;0.00;;;;;11.49;83.29;99415.81;5079568;28;45389;-61
2021/12/04 06:40:56;;;;;;;;;1.33;0.00;;;;;11.53;83.29;99415.44;5079731;28;45317;-60
2021/12/04 06:43:23;;;;;;;;;0.00;0.00;;;;;11.51;83.54;99417.47;5079476;28;45957;-61
2021/12/04 06:45:59;;;;;;;;;1.00;0.00;;;;;11.56;83.15;99410.59;5079483;28;45199;-62
2021/12/04 06:48:32;;;;;;;;;0.00;0.00;;;;;11.46;83.10;99400.22;5079440;28;45443;-57
2021/12/04 06:53:57;;;;;;;;;1.00;0.00;;;;;11.56;83.50;99420.41;4977054;28;45833;-61
2021/12/04 06:56:24;;;;;;;;;0.00;0.00;;;;;11.57;83.40;99408.75;4977114;28;45470;-60
2021/12/04 06:58:51;;;;;;;;;0.00;0.00;;;;;11.57;83.78;99401.56;4977159;28;45445;-63
2021/12/04 07:01:17;;;;;;;;;0.00;0.00;;;;;11.59;83.83;99415.53;4977399;28;45277;-63
2021/12/04 07:03:43;;;;;;;;;0.00;0.00;;;;;11.59;84.00;99404.88;4976773;28;46144;-63
2021/12/04 07:06:08;;;;;;;;;0.00;0.00;;;;;11.62;83.87;99404.50;4977105;28;45415;-62
2021/12/04 07:08:36;;;;;;;;;0.00;0.00;;;;;11.62;84.75;99396.50;4977386;28;45598;-59
2021/12/04 07:11:04;;;;;;;;;0.33;0.33;;;;;11.60;84.20;99400.38;4977371;28;45570;-60
2021/12/04 07:13:30;;;;;;;;;0.00;0.00;;;;;11.63;84.50;99408.84;4976941;28;47332;-58
2021/12/04 07:16:06;;;;;;;;;0.00;0.00;;;;;11.53;84.82;99386.97;4976774;28;45399;-58
2021/12/04 07:18:33;;;;;;;;;1.00;1.00;;;;;11.62;85.06;99393.84;4976927;28;45220;-58
2021/12/04 07:20:59;;;;;;;;;1.00;0.00;;;;;11.59;84.69;99388.91;4977160;28;45344;-59
2021/12/04 07:23:25;;;;;;;;;0.00;0.00;;;;;11.61;85.47;99386.88;4976617;28;46019;-60
2021/12/04 07:25:50;;;;;;;;;1.00;1.00;;;;;11.61;85.42;99392.19;4976654;28;45408;-58
2021/12/04 07:28:15;;;;;;;;;1.00;1.00;;;;;11.60;85.78;99389.72;4976919;28;45453;-55
2021/12/04 07:30:41;;;;;;;;;2.00;0.00;;;;;11.62;85.37;99385.84;5022499;28;45525;-62
2021/12/04 07:33:06;;;;;;;;;2.33;1.00;;;;;11.64;85.21;99385.69;5078716;28;45399;-55
2021/12/04 07:35:33;;;;;;;;;2.00;0.00;;;;;11.64;85.77;99386.50;5078632;28;45443;-54
2021/12/04 07:38:00;;;;;;;;;1.00;1.00;;;;;11.64;85.91;99388.34;5078747;28;45484;-58
2021/12/04 07:40:26;;;;;;;;;1.67;1.67;;;;;11.65;85.97;99392.66;5079058;28;45297;-56
2021/12/04 07:42:51;;;;;;;;;0.67;0.67;;;;;11.66;86.59;99391.63;5078616;28;45351;-54
2021/12/04 07:45:17;;;;;;;;;3.00;3.00;;;;;11.65;85.75;99393.47;5077505;28;45368;-51
2021/12/04 07:47:42;;;;;;;;;2.00;1.00;;;;;11.66;85.70;99397.78;5078627;28;45260;-57
2021/12/04 07:50:09;;;;;;;;;0.00;0.00;;;;;11.66;86.41;99389.78;5078678;28;45323;-53
2021/12/04 07:52:35;;;;;;;;;1.00;0.33;;;;;11.69;85.80;99388.59;5078553;28;46216;-58
2021/12/04 07:55:01;;;;;;;;;0.67;0.67;;;;;11.71;85.67;99397.22;5078413;28;45431;-53
2021/12/04 07:57:27;;;;;;;;;2.00;0.00;;;;;11.73;85.68;99393.38;5078712;28;45424;-52
2021/12/04 07:59:53;;;;;;;;;0.00;0.00;;;;;11.75;85.67;99393.16;5078786;28;45364;-52
2021/12/04 08:02:18;;;;;;;;;1.00;0.00;;;;;11.74;85.81;99397.69;5078467;28;45669;-54
2021/12/04 08:04:44;;;;;;;;;0.00;0.00;;;;;11.81;85.67;99399.59;5078232;28;45348;-54
2021/12/04 08:07:09;;;;;;;;;0.00;0.00;;;;;11.83;84.82;99400.28;5078439;28;45309;-53
2021/12/04 08:09:35;;;;;;;;;0.00;0.00;;;;;11.81;84.62;99395.09;5078672;28;45244;-50
2021/12/04 08:12:00;;;;;;;;;0.00;0.00;;;;;11.78;84.45;99376.81;5077468;28;45254;-56
2021/12/04 08:14:25;;;;;;;;;0.00;0.00;;;;;11.90;83.84;99395.84;5078253;28;45352;-55
2021/12/04 08:16:51;;;;;;;;;0.00;0.00;;;;;11.96;83.43;99403.06;5078539;28;45237;-53
2021/12/04 08:19:16;;;;;;;;;0.00;0.00;;;;;11.98;82.81;99383.22;5078342;28;45205;-55
2021/12/04 08:21:42;;;;;;;;;0.00;0.00;;;;;11.91;83.03;99382.31;5077830;28;46087;-52
2021/12/04 08:24:07;;;;;;;;;0.00;0.00;;;;;12.04;82.27;99402.97;5077522;28;45245;-55
2021/12/04 08:26:38;;;;;;;;;0.00;0.00;;;;;12.06;82.45;99413.44;5078046;28;45329;-52
2021/12/04 08:29:05;;;;;;;;;0.00;0.00;;;;;12.08;82.34;99403.41;5078486;28;45404;-55
2021/12/04 08:31:30;;;;;;;;;0.00;0.00;;;;;12.06;81.84;99411.59;5077936;28;45376;-58
2021/12/04 08:33:56;;;;;;;;;0.00;0.00;;;;;12.07;82.21;99433.75;5077648;28;45414;-58
2021/12/04 08:36:21;;;;;;;;;0.00;0.00;;;;;12.12;81.53;99426.84;5078084;28;45699;-52
2021/12/04 08:38:47;;;;;;;;;0.00;0.00;;;;;12.14;81.43;99424.00;5077787;28;45309;-57
2021/12/04 08:41:15;;;;;;;;;0.00;0.00;;;;;12.13;80.94;99425.81;5077620;28;46108;-55
2021/12/04 08:43:41;;;;;;;;;0.67;0.00;;;;;12.13;80.17;99439.13;5077267;28;45500;-59
2021/12/04 08:46:07;;;;;;;;;0.00;0.00;;;;;12.14;80.32;99424.00;5077531;28;45442;-57
2021/12/04 08:48:33;;;;;;;;;0.00;0.00;;;;;12.14;79.78;99437.31;5078070;28;45391;-55
2021/12/04 08:51:00;;;;;;;;;0.00;0.00;;;;;12.18;79.82;99442.09;5077266;28;46398;-58
2021/12/04 08:53:27;;;;;;;;;0.00;0.00;;;;;12.21;78.75;99443.53;5077271;28;45265;-55
2021/12/04 08:55:52;;;;;;;;;1.00;0.00;;;;;12.26;78.84;99445.63;5077461;28;45209;-56
2021/12/04 08:58:18;;;;;;;;;0.00;0.00;;;;;12.27;78.62;99460.63;5077674;28;45267;-60
2021/12/04 09:00:49;;;;;;;;;0.00;0.00;;;;;12.24;78.11;99464.50;5077535;28;45948;-54
2021/12/04 09:03:20;;;;;;;;;2.00;0.00;;;;;12.20;77.10;99477.38;5077597;28;45443;-51
2021/12/04 09:05:46;;;;;;;;;0.00;0.00;;;;;12.15;77.60;99468.28;5077354;28;45530;-53
2021/12/04 09:08:12;;;;;;;;;2.00;0.00;;;;;12.07;76.71;99463.06;5077662;28;45332;-52
2021/12/04 09:10:42;;;;;;;;;0.00;0.00;;;;;12.15;77.06;99478.97;5077249;28;45579;-53
2021/12/04 09:13:08;;;;;;;;;0.00;0.00;;;;;12.12;75.36;99480.16;5077258;28;45310;-52
2021/12/04 09:15:35;;;;;;;;;0.00;0.00;;;;;12.12;74.82;99493.47;5077536;28;45237;-56
2021/12/04 09:18:00;;;;;;;;;0.00;0.00;;;;;12.11;75.16;99499.81;5077418;28;45479;-53
2021/12/04 09:20:30;;;;;;;;;0.00;0.00;;;;;12.18;73.92;99511.41;5076847;28;45969;-55
2021/12/04 09:22:56;;;;;;;;;0.00;0.00;;;;;12.31;73.34;99520.56;5077235;28;45259;-52
2021/12/04 09:25:25;;;;;;;;;0.00;0.00;;;;;12.46;72.61;99494.66;5076881;28;45176;-60
2021/12/04 10:00:11;;;;;;;;;1.33;0.00;;;;;15.92;57.65;99545.88;5076947;28;45415;-52
2021/12/04 10:35:02;;;;;;;;;0.00;0.00;;;;;12.54;64.66;99603.91;5079747;28;45280;-50
2021/12/04 10:37:29;;;;;;;;;0.00;0.00;;;;;12.52;64.10;99608.63;5079481;28;45488;-55
2021/12/04 10:40:01;;;;;;;;;3.00;0.00;;;;;12.49;64.76;99609.00;5080197;28;45431;-52
2021/12/04 10:42:33;;;;;;;;;1.00;1.00;;;;;12.41;64.28;99606.44;5080192;28;45469;-55
2021/12/04 10:44:59;;;;;;;;;0.67;0.67;;;;;12.43;63.74;99615.91;5079050;28;45448;-54
2021/12/04 10:47:27;;;;;;;;;0.00;0.00;;;;;12.56;63.65;99607.25;5079448;28;45373;-59
2021/12/04 10:50:22;;;;;;;;;0.00;0.00;;;;;12.60;64.07;99610.34;5079907;28;45309;-57
2021/12/04 10:52:58;;;;;;;;;0.33;0.00;;;;;12.55;64.18;99602.91;5080002;28;45516;-54
2021/12/04 11:00:50;;;;;;;;;0.00;0.00;;;;;12.36;63.73;99620.31;5079439;28;45391;-61
2021/12/04 11:26:15;;;;;;;;;0.00;0.00;;;;;11.60;66.95;99640.94;5079096;28;45329;-62
2021/12/04 11:44:24;;;;;;;;;0.00;0.00;;;;;11.08;70.31;99684.25;5015999;28;45432;-59
2021/12/04 11:46:56;;;;;;;;;0.33;0.33;;;;;10.93;70.88;99665.53;5016200;28;45425;-60
2021/12/04 11:49:26;;;;;;;;;0.67;0.67;;;;;10.93;70.87;99676.19;5015742;28;45330;-60
2021/12/04 11:51:59;;;;;;;;;0.00;0.00;;;;;10.91;70.98;99672.88;5015577;28;45454;-61
2021/12/04 11:54:30;;;;;;;;;1.00;1.00;;;;;10.78;71.71;99663.78;5015746;28;45322;-62
2021/12/04 11:57:08;;;;;;;;;1.00;1.00;;;;;10.91;71.04;99688.00;5015584;28;45565;-62
2021/12/04 11:59:37;;;;;;;;;1.00;0.33;;;;;10.90;70.77;99689.00;5015410;28;45280;-62
2021/12/04 12:02:08;;;;;;;;;1.33;1.00;;;;;10.79;71.13;99684.06;5015824;28;45314;-62
2021/12/04 12:04:39;;;;;;;;;1.00;1.00;;;;;10.82;71.32;99697.03;5015939;28;45323;-64
2021/12/04 12:07:10;;;;;;;;;2.00;2.00;;;;;10.85;71.39;99704.66;5015749;28;45408;-57
2021/12/04 12:09:39;;;;;;;;;1.00;1.00;;;;;10.88;71.34;99699.84;5015381;28;47356;-62
2021/12/04 12:12:06;;;;;;;;;2.67;1.33;;;;;10.96;70.87;99707.78;5074722;28;45338;-62
2021/12/04 12:14:36;;;;;;;;;2.33;2.33;;;;;10.99;70.89;99714.56;5078685;28;45267;-58
2021/12/04 12:17:02;;;;;;;;;2.00;2.00;;;;;10.94;70.13;99706.28;5078189;28;45411;-60
2021/12/04 12:19:35;;;;;;;;;1.33;1.33;;;;;11.03;70.04;99710.56;5077898;28;46121;-61
2021/12/04 12:22:09;;;;;;;;;1.00;1.00;;;;;10.99;69.54;99715.38;5078081;28;45358;-61
2021/12/04 12:37:50;;;;;;;;;5.33;2.00;;;;;11.23;65.60;99767.66;5077842;28;45348;-62
2021/12/04 12:40:19;;;;;;;;;2.00;2.00;;;;;11.19;64.54;99769.03;5077765;28;45354;-61
2021/12/04 12:42:45;;;;;;;;;3.67;2.00;;;;;11.15;64.59;99786.34;5077653;28;45391;-57
2021/12/04 12:45:20;;;;;;;;;1.67;0.67;;;;;11.10;64.85;99795.88;5077716;28;45487;-54
2021/12/04 12:47:58;;;;;;;;;2.00;0.33;;;;;11.10;64.67;99804.69;5077828;28;45339;-57
2021/12/04 12:50:27;;;;;;;;;2.67;2.00;;;;;11.14;63.38;99808.66;5077781;28;45436;-59
2021/12/04 12:53:05;;;;;;;;;1.00;1.00;;;;;11.39;64.14;99800.53;5077503;28;45271;-51
2021/12/04 12:55:33;;;;;;;;;4.33;2.00;;;;;11.52;63.85;99802.63;5076726;28;45418;-53
2021/12/04 12:58:11;;;;;;;;;2.00;2.00;;;;;11.55;63.27;99805.78;5076647;28;45256;-51
2021/12/04 13:12:10;;;;;;;;;1.00;1.00;;;;;11.04;62.63;99821.34;5077602;28;45250;-64
2021/12/04 13:14:41;;;;;;;;;1.00;1.00;;;;;10.94;62.18;99826.03;5077289;28;45475;-64
2021/12/04 13:17:21;;;;;;;;;4.33;2.00;;;;;10.83;61.97;99815.75;5076912;28;45319;-65
2021/12/04 13:19:51;;;;;;;;;3.00;1.00;;;;;10.67;61.52;99809.47;5077316;28;45399;-66
2021/12/04 13:22:26;;;;;;;;;9.33;2.33;;;;;10.67;61.91;99814.81;5076826;28;46205;-69
2021/12/04 13:24:54;;;;;;;;;4.67;2.00;;;;;10.64;60.91;99815.13;5075491;28;45356;-65
2021/12/04 13:30:00;;;;;;;;;3.33;1.00;;;;;10.69;61.41;99819.94;5077189;28;45364;-67
2021/12/04 13:32:35;;;;;;;;;2.00;1.00;;;;;10.74;61.14;99828.22;5077104;28;45527;-67
2021/12/04 13:35:20;;;;;;;;;2.33;1.33;;;;;10.83;62.08;99821.91;5076847;28;45246;-59
2021/12/04 13:37:50;;;;;;;;;1.67;1.67;;;;;10.86;60.35;99823.38;5077172;28;45374;-68
2021/12/04 13:40:19;;;;;;;;;3.00;1.00;;;;;10.86;59.19;99832.19;5077006;28;45178;-65
2021/12/04 13:42:45;;;;;;;;;2.00;2.00;;;;;10.82;58.52;99832.72;5076984;28;47271;-56
2021/12/04 13:45:14;;;;;;;;;4.33;0.67;;;;;10.77;58.81;99835.88;5080110;28;45433;-65
2021/12/04 13:47:41;;;;;;;;;4.00;2.67;;;;;10.71;57.88;99824.09;5080696;28;45268;-65
2021/12/04 13:52:59;;;;;;;;;0.00;0.00;;;;;10.56;57.93;99796.53;5080353;28;45426;-62
2021/12/04 13:55:26;;;;;;;;;6.00;1.00;;;;;10.67;56.99;99816.63;5080366;28;45450;-62
2021/12/04 13:57:52;;;;;;;;;1.67;1.33;;;;;10.68;57.03;99826.25;5079239;28;45383;-60
2021/12/04 14:00:19;;;;;;;;;2.00;1.00;;;;;10.68;57.64;99818.28;5080433;28;45390;-68
2021/12/04 14:02:44;;;;;;;;;0.67;0.00;;;;;10.64;58.35;99817.78;5080001;28;45345;-51
2021/12/04 14:05:18;;;;;;;;;4.33;0.00;;;;;10.62;58.00;99833.09;5080193;28;45201;-54
2021/12/04 14:07:54;;;;;;;;;0.67;0.67;;;;;10.62;57.49;99830.44;5080894;28;45316;-50
2021/12/04 14:10:21;;;;;;;;;3.67;2.00;;;;;10.66;56.77;99833.56;5079735;28;45483;-52
2021/12/04 14:12:47;;;;;;;;;3.67;2.00;;;;;10.66;56.75;99830.91;5079730;28;47016;-53
2021/12/04 14:15:15;;;;;;;;;5.50;2.00;;;;;10.65;56.75;99831.91;5080045;28;45219;-56
2021/12/04 14:17:41;;;;;;;;;5.33;1.33;;;;;10.56;56.71;99825.78;5080173;28;45295;-52
2021/12/04 14:20:08;;;;;;;;;3.67;2.00;;;;;10.58;57.62;99842.41;5080175;28;45279;-54
2021/12/04 14:22:34;;;;;;;;;0.67;0.67;;;;;10.52;55.91;99851.06;5079736;28;45860;-52
2021/12/04 14:25:02;;;;;;;;;1.33;1.33;;;;;10.54;56.90;99866.84;5079332;28;45375;-55
2021/12/04 14:27:36;;;;;;;;;1.33;0.00;;;;;10.48;57.09;99863.84;5080161;28;45264;-50
2021/12/04 14:30:12;;;;;;;;;1.00;1.00;;;;;10.40;57.12;99855.06;5080144;28;45285;-54
2021/12/04 14:32:39;;;;;;;;;2.00;2.00;;;;;10.44;56.98;99869.66;5079559;28;46186;-50
2021/12/04 14:35:15;;;;;;;;;3.67;3.00;;;;;10.38;57.64;99860.53;5078878;28;45365;-55
2021/12/04 14:37:43;;;;;;;;;5.00;2.00;;;;;10.38;56.60;99859.72;5079907;28;45245;-54
2021/12/04 14:40:14;;;;;;;;;1.00;1.00;;;;;10.39;57.18;99869.34;5079844;28;45486;-53
2021/12/04 14:42:40;;;;;;;;;1.33;1.00;;;;;10.35;56.61;99878.66;5079553;28;45597;-50
2021/12/04 14:45:10;;;;;;;;;5.00;2.33;;;;;10.29;56.50;99895.28;5079610;28;45507;-53
2021/12/04 14:47:42;;;;;;;;;0.67;0.67;;;;;10.24;56.33;99887.78;5079461;28;45224;-54
2021/12/04 14:50:10;;;;;;;;;6.00;0.33;;;;;10.22;56.02;99900.38;5079777;28;45374;-52
2021/12/04 14:52:37;;;;;;;;;0.00;0.00;;;;;10.19;56.13;99903.34;5079605;28;47198;-52
2021/12/04 14:55:22;;;;;;;;;0.00;0.00;;;;;10.13;55.11;99917.31;5079195;28;45375;-54
2021/12/04 14:57:50;;;;;;;;;1.33;0.00;;;;;10.09;55.77;99923.97;5079487;28;45456;-52
2021/12/04 15:00:23;;;;;;;;;1.67;0.00;;;;;9.99;55.89;99927.59;5079722;28;45363;-54
2021/12/04 15:02:58;;;;;;;;;5.33;2.00;;;;;9.92;56.17;99931.06;5078956;28;45454;-50
2021/12/04 15:05:34;;;;;;;;;3.00;1.67;;;;;9.88;56.92;99935.88;5079385;28;45339;-51
2021/12/04 15:08:08;;;;;;;;;2.00;0.00;;;;;9.84;56.61;99939.84;5079353;28;45311;-49